createdAt,value
2022-10-07T00:02:00.454Z,58.34
2022-10-07T00:04:28.425Z,58.62
2022-10-07T00:06:56.337Z,58.38
2022-10-07T00:09:24.328Z,58.78
2022-10-07T00:11:52.288Z,59.16
2022-10-07T00:14:21.560Z,59.26
2022-10-07T00:16:49.657Z,59.07
2022-10-07T00:19:17.554Z,59.63
2022-10-07T00:21:45.494Z,59.35
2022-10-07T00:24:14.453Z,59.11
2022-10-07T00:26:42.430Z,58.86
2022-10-07T00:29:10.333Z,58.35
2022-10-07T00:31:39.738Z,58.22
2022-10-07T00:34:07.803Z,58.71
2022-10-07T00:36:37.898Z,58.67
2022-10-07T00:39:07.476Z,58.54
2022-10-07T00:41:37.596Z,59.02
2022-10-07T00:44:34.151Z,58.99
2022-10-07T00:47:06.071Z,59.46
2022-10-07T00:49:42.173Z,59.21
2022-10-07T00:52:10.275Z,59.21
2022-10-07T00:54:39.833Z,59.56
2022-10-07T00:57:08.200Z,59.46
2022-10-07T00:59:38.097Z,58.91
2022-10-07T01:02:07.981Z,59.32
2022-10-07T01:04:36.809Z,59.22
2022-10-07T01:07:04.880Z,59.23
2022-10-07T01:09:33.177Z,59.28
2022-10-07T01:12:07.986Z,59.49
2022-10-07T01:14:49.992Z,60.49
2022-10-07T01:17:26.373Z,60.78
2022-10-07T01:20:11.885Z,60.50
2022-10-07T01:22:48.423Z,60.55
2022-10-07T01:25:29.416Z,61.43
2022-10-07T01:28:04.741Z,61.07
2022-10-07T01:30:37.187Z,60.61
2022-10-07T01:33:11.269Z,60.28
2022-10-07T01:35:43.281Z,60.13
2022-10-07T01:38:15.102Z,59.88
2022-10-07T01:40:48.283Z,59.66
2022-10-07T01:43:21.684Z,59.86
2022-10-07T01:45:52.410Z,59.77
2022-10-07T01:48:20.351Z,60.18
2022-10-07T01:50:49.715Z,60.54
2022-10-07T01:53:29.798Z,60.63
2022-10-07T01:56:13.844Z,60.72
2022-10-07T01:59:02.680Z,60.48
2022-10-07T02:01:45.021Z,60.52
2022-10-07T02:04:24.940Z,60.81
2022-10-07T02:07:01.805Z,60.50
2022-10-07T02:09:35.611Z,60.43
2022-10-07T02:12:11.017Z,60.97
2022-10-07T02:14:46.600Z,60.77
2022-10-07T02:17:18.806Z,61.75
2022-10-07T02:19:53.389Z,62.66
2022-10-07T02:22:24.434Z,62.43
2022-10-07T02:24:55.558Z,62.12
2022-10-07T02:27:28.354Z,61.86
2022-10-07T02:30:03.053Z,61.73
2022-10-07T02:32:35.129Z,62.03
2022-10-07T02:35:13.582Z,62.48
2022-10-07T02:37:45.777Z,62.13
2022-10-07T02:40:14.693Z,62.57
2022-10-07T02:42:53.368Z,62.27
2022-10-07T02:45:30.284Z,61.84
2022-10-07T02:48:01.645Z,61.87
2022-10-07T02:50:42.454Z,62.55
2022-10-07T02:53:13.670Z,62.32
2022-10-07T02:55:43.648Z,62.48
2022-10-07T02:58:14.000Z,61.86
2022-10-07T03:00:52.884Z,62.29
2022-10-07T03:03:23.570Z,62.80
2022-10-07T03:06:05.144Z,62.73
2022-10-07T03:08:34.235Z,62.46
2022-10-07T03:11:03.294Z,62.58
2022-10-07T03:13:32.207Z,62.57
2022-10-07T03:16:05.335Z,62.92
2022-10-07T03:18:34.465Z,63.57
2022-10-07T03:21:18.982Z,63.09
2022-10-07T03:23:52.143Z,63.14
2022-10-07T03:26:21.679Z,63.56
2022-10-07T03:28:50.118Z,64.26
2022-10-07T03:31:20.903Z,64.29
2022-10-07T03:33:51.463Z,64.39
2022-10-07T03:36:20.920Z,64.39
2022-10-07T03:38:49.678Z,64.58
2022-10-07T03:41:17.915Z,64.36
2022-10-07T03:43:46.753Z,63.82
2022-10-07T03:46:21.000Z,63.78
2022-10-07T03:48:49.977Z,64.01
2022-10-07T03:51:18.278Z,64.50
2022-10-07T03:53:46.748Z,65.25
2022-10-07T03:56:14.811Z,64.95
2022-10-07T03:58:44.522Z,64.62
2022-10-07T04:01:15.166Z,64.81
2022-10-07T04:03:51.661Z,65.41
2022-10-07T04:06:19.872Z,65.68
2022-10-07T04:08:52.917Z,65.89
2022-10-07T04:11:20.947Z,65.52
2022-10-07T04:13:49.177Z,65.80
2022-10-07T04:16:19.884Z,65.99
2022-10-07T04:18:48.709Z,65.74
2022-10-07T04:21:18.280Z,65.73
2022-10-07T04:23:46.261Z,65.74
2022-10-07T04:26:14.585Z,65.81
2022-10-07T04:28:47.926Z,66.23
2022-10-07T04:31:19.871Z,66.15
2022-10-07T04:33:53.624Z,66.64
2022-10-07T04:36:27.381Z,65.93
2022-10-07T04:39:04.026Z,66.70
2022-10-07T04:41:36.287Z,67.87
2022-10-07T04:44:08.460Z,66.87
2022-10-07T04:46:42.103Z,67.20
2022-10-07T04:49:13.513Z,66.90
2022-10-07T04:51:43.133Z,66.57
2022-10-07T04:54:11.316Z,66.19
2022-10-07T04:56:49.911Z,66.57
2022-10-07T04:59:23.462Z,66.52
2022-10-07T05:01:52.461Z,66.70
2022-10-07T05:04:20.418Z,67.23
2022-10-07T05:06:50.139Z,67.82
2022-10-07T05:09:18.004Z,67.48
2022-10-07T05:11:48.291Z,66.93
2022-10-07T05:14:21.554Z,67.46
2022-10-07T05:16:51.062Z,67.80
2022-10-07T05:19:21.221Z,67.70
2022-10-07T05:21:51.159Z,67.97
2022-10-07T05:24:20.062Z,68.19
2022-10-07T05:26:48.960Z,68.31
2022-10-07T05:29:17.494Z,68.25
2022-10-07T05:31:49.752Z,68.40
2022-10-07T05:34:20.800Z,68.63
2022-10-07T05:36:48.864Z,68.63
2022-10-07T05:39:18.874Z,68.76
2022-10-07T05:41:53.160Z,68.63
2022-10-07T05:44:26.566Z,68.10
2022-10-07T05:46:57.724Z,68.20
2022-10-07T05:49:25.796Z,68.15
2022-10-07T05:51:53.664Z,68.20
2022-10-07T05:54:24.346Z,68.70
2022-10-07T05:56:53.961Z,69.03
2022-10-07T05:59:22.305Z,69.03
2022-10-07T06:01:50.778Z,68.98
2022-10-07T06:04:22.095Z,68.50
2022-10-07T06:06:52.741Z,68.87
2022-10-07T06:09:38.831Z,69.38
2022-10-07T06:12:32.181Z,69.18
2022-10-07T06:15:03.461Z,69.19
2022-10-07T06:17:31.540Z,70.01
2022-10-07T06:20:01.841Z,70.07
2022-10-07T06:22:30.426Z,70.26
2022-10-07T06:25:01.016Z,70.29
2022-10-07T06:27:30.460Z,70.22
2022-10-07T06:29:58.326Z,70.51
2022-10-07T06:32:26.241Z,70.19
2022-10-07T06:34:54.681Z,70.49
2022-10-07T06:37:22.876Z,70.83
2022-10-07T06:39:50.721Z,70.90
2022-10-07T06:42:19.395Z,70.83
2022-10-07T06:45:10.631Z,70.42
2022-10-07T06:47:39.490Z,70.70
2022-10-07T06:50:09.009Z,70.90
2022-10-07T06:52:40.036Z,71.27
2022-10-07T06:55:11.632Z,70.79
2022-10-07T06:57:45.595Z,70.46
2022-10-07T07:00:15.833Z,70.23
2022-10-07T07:02:44.816Z,70.44
2022-10-07T07:05:16.225Z,71.01
2022-10-07T07:07:46.292Z,70.50
2022-10-07T07:10:14.872Z,70.50
2022-10-07T07:12:46.535Z,70.24
2022-10-07T07:15:16.718Z,70.22
2022-10-07T07:17:44.933Z,70.43
2022-10-07T07:20:14.304Z,70.63
2022-10-07T07:22:43.337Z,70.67
2022-10-07T07:25:11.885Z,70.55
2022-10-07T07:27:40.284Z,70.49
2022-10-07T07:30:11.006Z,71.03
2022-10-07T07:32:40.768Z,70.72
2022-10-07T07:35:09.636Z,70.26
2022-10-07T07:37:38.100Z,70.52
2022-10-07T07:40:06.921Z,70.39
2022-10-07T07:42:35.313Z,70.47
2022-10-07T07:45:03.670Z,70.37
2022-10-07T07:47:34.074Z,70.06
2022-10-07T07:50:05.021Z,70.55
2022-10-07T07:52:35.382Z,70.62
2022-10-07T07:55:05.656Z,71.08
2022-10-07T07:57:33.616Z,70.94
2022-10-07T08:00:07.495Z,70.61
2022-10-07T08:02:42.037Z,70.69
2022-10-07T08:05:18.021Z,70.57
2022-10-07T08:07:49.953Z,70.36
2022-10-07T08:10:18.052Z,70.52
2022-10-07T08:12:46.085Z,69.93
2022-10-07T08:15:15.157Z,70.63
2022-10-07T08:17:44.203Z,69.81
2022-10-07T08:20:12.321Z,69.63
2022-10-07T08:22:45.863Z,69.67
2022-10-07T08:25:16.202Z,69.08
2022-10-07T08:27:45.829Z,69.43
2022-10-07T08:30:14.718Z,69.63
2022-10-07T08:32:44.614Z,69.91
2022-10-07T08:35:13.636Z,69.72
2022-10-07T08:37:47.453Z,69.37
2022-10-07T08:40:17.775Z,68.95
2022-10-07T08:42:47.745Z,68.68
2022-10-07T08:45:21.932Z,68.73
2022-10-07T08:47:52.819Z,68.93
2022-10-07T08:50:31.285Z,68.54
2022-10-07T08:53:04.645Z,68.45
2022-10-07T08:55:39.605Z,68.30
2022-10-07T08:58:35.132Z,69.27
2022-10-07T09:01:19.034Z,68.96
2022-10-07T09:03:56.291Z,68.87
2022-10-07T09:06:29.741Z,68.69
2022-10-07T09:09:05.569Z,69.17
2022-10-07T09:11:36.474Z,68.87
2022-10-07T09:14:16.992Z,68.18
2022-10-07T09:16:47.246Z,68.66
2022-10-07T09:19:24.055Z,68.63
2022-10-07T09:21:52.520Z,68.47
2022-10-07T09:24:24.544Z,69.17
2022-10-07T09:26:55.440Z,68.80
2022-10-07T09:29:25.325Z,68.59
2022-10-07T09:31:54.025Z,69.00
2022-10-07T09:34:25.008Z,68.71
2022-10-07T09:37:14.636Z,68.21
2022-10-07T09:39:45.246Z,68.01
2022-10-07T09:42:36.205Z,68.35
2022-10-07T09:45:18.512Z,68.65
2022-10-07T09:47:52.555Z,68.88
2022-10-07T09:50:38.050Z,68.37
2022-10-07T09:53:07.564Z,67.90
2022-10-07T09:55:42.833Z,67.67
2022-10-07T09:58:19.861Z,67.65
2022-10-07T10:00:50.186Z,67.45
2022-10-07T10:03:18.585Z,67.08
2022-10-07T10:05:57.467Z,67.04
2022-10-07T10:08:29.880Z,66.68
2022-10-07T10:11:05.276Z,66.98
2022-10-07T10:13:47.134Z,66.51
2022-10-07T10:16:34.020Z,66.56
2022-10-07T10:19:03.937Z,66.33
2022-10-07T10:21:35.821Z,66.22
2022-10-07T10:24:07.088Z,65.96
2022-10-07T10:27:03.175Z,66.15
2022-10-07T10:29:49.763Z,65.96
2022-10-07T10:32:29.658Z,65.69
2022-10-07T10:35:03.880Z,65.91
2022-10-07T10:37:48.017Z,66.08
2022-10-07T10:40:25.570Z,66.01
2022-10-07T10:43:12.504Z,65.62
2022-10-07T10:45:52.232Z,64.95
2022-10-07T10:48:33.626Z,64.86
2022-10-07T10:51:13.441Z,64.43
2022-10-07T10:53:54.761Z,65.82
2022-10-07T10:56:39.414Z,65.08
2022-10-07T10:59:22.940Z,65.13
2022-10-07T11:02:00.316Z,64.99
2022-10-07T11:04:43.594Z,65.35
2022-10-07T11:07:20.080Z,65.47
2022-10-07T11:09:52.400Z,65.26
2022-10-07T11:12:26.188Z,63.51
2022-10-07T11:15:02.111Z,63.57
2022-10-07T11:17:35.816Z,64.26
2022-10-07T11:20:15.618Z,63.88
2022-10-07T11:22:52.741Z,63.91
2022-10-07T11:25:29.929Z,63.59
2022-10-07T11:28:08.809Z,63.22
2022-10-07T11:30:47.983Z,63.05
2022-10-07T11:33:24.402Z,62.72
2022-10-07T11:35:58.998Z,62.34
2022-10-07T11:38:33.604Z,62.70
2022-10-07T11:41:09.850Z,63.16
2022-10-07T11:43:44.718Z,62.57
2022-10-07T11:46:22.110Z,62.25
2022-10-07T11:48:54.118Z,62.67
2022-10-07T11:51:25.955Z,62.07
2022-10-07T11:53:57.231Z,63.15
2022-10-07T11:56:28.051Z,63.63
2022-10-07T11:59:02.046Z,63.72
2022-10-07T12:01:48.762Z,62.90
2022-10-07T12:04:35.261Z,62.28
2022-10-07T12:07:37.417Z,62.11
2022-10-07T12:10:22.053Z,62.36
2022-10-07T12:12:53.013Z,61.39
2022-10-07T12:15:36.183Z,61.99
2022-10-07T12:18:30.471Z,61.22
2022-10-07T12:21:07.046Z,61.54
2022-10-07T12:23:45.531Z,61.75
2022-10-07T12:26:50.863Z,61.67
2022-10-07T12:29:32.409Z,61.72
2022-10-07T12:32:01.509Z,61.21
2022-10-07T12:34:43.443Z,61.98
2022-10-07T12:37:50.368Z,61.80
2022-10-07T12:40:28.050Z,61.13
2022-10-07T12:43:03.193Z,60.89
2022-10-07T12:45:38.056Z,60.92
2022-10-07T12:48:08.267Z,61.07
2022-10-07T12:50:38.522Z,60.26
2022-10-07T12:53:07.188Z,60.72
2022-10-07T12:55:38.108Z,60.43
2022-10-07T12:58:49.469Z,60.74
2022-10-07T13:01:29.141Z,60.74
2022-10-07T13:04:18.772Z,60.29
2022-10-07T13:07:36.070Z,61.15
2022-10-07T13:10:24.299Z,60.96
2022-10-07T13:12:56.630Z,61.01
2022-10-07T13:15:32.360Z,61.00
2022-10-07T13:18:10.875Z,60.96
2022-10-07T13:20:55.772Z,61.16
2022-10-07T13:23:28.267Z,61.10
2022-10-07T13:25:58.428Z,60.63
2022-10-07T13:28:32.019Z,59.50
2022-10-07T13:31:14.250Z,59.86
2022-10-07T13:33:43.191Z,60.23
2022-10-07T13:36:21.019Z,59.52
2022-10-07T13:38:53.686Z,59.59
2022-10-07T13:41:27.604Z,59.80
2022-10-07T13:44:00.478Z,59.85
2022-10-07T13:46:31.316Z,59.24
2022-10-07T13:49:00.663Z,59.47
2022-10-07T13:51:32.754Z,58.71
2022-10-07T13:54:05.044Z,58.73
2022-10-07T13:56:38.938Z,58.86
2022-10-07T13:59:07.709Z,59.00
2022-10-07T14:01:40.212Z,59.58
2022-10-07T14:04:19.875Z,59.75
2022-10-07T14:06:54.380Z,59.49
2022-10-07T14:09:34.307Z,59.73
2022-10-07T14:12:05.580Z,59.61
2022-10-07T14:14:36.995Z,60.31
2022-10-07T14:17:12.081Z,60.74
2022-10-07T14:19:40.915Z,60.25
2022-10-07T14:22:19.526Z,60.59
2022-10-07T14:25:01.503Z,60.03
2022-10-07T14:28:11.276Z,59.98
2022-10-07T14:30:58.028Z,59.87
2022-10-07T14:33:47.680Z,59.00
2022-10-07T14:36:18.222Z,59.32
2022-10-07T14:38:47.768Z,58.97
2022-10-07T14:41:19.158Z,59.04
2022-10-07T14:43:49.833Z,58.38
2022-10-07T14:46:19.491Z,57.83
2022-10-07T14:48:48.325Z,58.33
2022-10-07T14:51:19.260Z,57.85
2022-10-07T14:53:49.749Z,58.27
2022-10-07T14:56:25.145Z,58.23
2022-10-07T14:58:53.109Z,58.89
2022-10-07T15:01:21.011Z,58.41
2022-10-07T15:03:50.269Z,59.27
2022-10-07T15:06:19.021Z,59.26
2022-10-07T15:08:47.904Z,59.64
2022-10-07T15:11:16.293Z,59.65
2022-10-07T15:13:47.742Z,59.08
2022-10-07T15:16:17.421Z,59.58
2022-10-07T15:18:51.048Z,59.33
2022-10-07T15:21:24.656Z,59.45
2022-10-07T15:23:53.293Z,60.39
2022-10-07T15:26:24.362Z,59.51
2022-10-07T15:28:55.393Z,59.91
2022-10-07T15:31:26.055Z,60.03
2022-10-07T15:33:57.175Z,60.02
2022-10-07T15:36:25.845Z,60.21
2022-10-07T15:38:54.412Z,60.15
2022-10-07T15:41:34.293Z,59.95
2022-10-07T15:44:05.784Z,60.01
2022-10-07T15:46:34.013Z,59.56
2022-10-07T15:49:05.540Z,59.85
2022-10-07T15:51:35.619Z,59.86
2022-10-07T15:54:04.581Z,60.26
2022-10-07T15:56:32.604Z,60.52
2022-10-07T15:59:02.213Z,60.28
2022-10-07T16:01:33.036Z,60.33
2022-10-07T16:04:02.974Z,60.18
2022-10-07T16:06:33.330Z,60.66
2022-10-07T16:09:02.526Z,60.36
2022-10-07T16:11:32.982Z,59.44
2022-10-07T16:14:02.299Z,59.85
2022-10-07T16:16:32.959Z,60.40
2022-10-07T16:19:01.721Z,60.12
2022-10-07T16:21:32.075Z,60.63
2022-10-07T16:24:04.588Z,61.40
2022-10-07T16:26:34.711Z,60.88
2022-10-07T16:29:22.255Z,60.71
2022-10-07T16:31:57.944Z,60.72
2022-10-07T16:34:28.095Z,60.64
2022-10-07T16:36:57.365Z,61.07
2022-10-07T16:39:25.663Z,61.21
2022-10-07T16:41:59.541Z,60.89
2022-10-07T16:44:27.984Z,61.05
2022-10-07T16:46:58.127Z,60.81
2022-10-07T16:49:27.731Z,61.22
2022-10-07T16:51:56.430Z,61.19
2022-10-07T16:54:29.998Z,61.57
2022-10-07T16:56:58.651Z,61.65
2022-10-07T16:59:27.336Z,61.38
2022-10-07T17:02:00.159Z,61.39
2022-10-07T17:04:28.464Z,60.97
2022-10-07T17:06:56.473Z,61.08
2022-10-07T17:09:25.509Z,60.57
2022-10-07T17:11:53.847Z,60.88
2022-10-07T17:14:23.682Z,60.87
2022-10-07T17:16:53.916Z,60.88
2022-10-07T17:19:25.364Z,60.99
2022-10-07T17:21:55.077Z,60.88
2022-10-07T17:24:24.377Z,60.92
2022-10-07T17:26:53.529Z,60.75
2022-10-07T17:29:24.308Z,60.23
2022-10-07T17:31:52.709Z,60.01
2022-10-07T17:34:23.304Z,59.90
2022-10-07T17:36:51.721Z,60.00
2022-10-07T17:39:20.164Z,60.36
2022-10-07T17:41:48.824Z,60.14
2022-10-07T17:44:17.189Z,60.24
2022-10-07T17:46:45.432Z,59.91
2022-10-07T17:49:14.352Z,59.78
2022-10-07T17:51:44.278Z,60.40
2022-10-07T17:54:14.153Z,60.81
2022-10-07T17:56:44.361Z,60.63
2022-10-07T17:59:12.331Z,60.67
2022-10-07T18:01:41.234Z,60.82
2022-10-07T18:04:12.233Z,60.46
2022-10-07T18:06:44.213Z,60.20
2022-10-07T18:09:18.171Z,60.43
2022-10-07T18:12:04.261Z,60.95
2022-10-07T18:14:53.811Z,60.58
2022-10-07T18:17:23.094Z,61.02
2022-10-07T18:19:51.054Z,60.43
2022-10-07T18:22:20.346Z,61.15
2022-10-07T18:24:48.265Z,60.76
2022-10-07T18:27:16.618Z,61.18
2022-10-07T18:29:44.613Z,61.29
2022-10-07T18:32:12.550Z,61.29
2022-10-07T18:34:40.378Z,61.22
2022-10-07T18:37:08.486Z,61.73
2022-10-07T18:39:38.471Z,61.10
2022-10-07T18:42:06.585Z,61.08
2022-10-07T18:44:34.429Z,61.10
2022-10-07T18:47:02.448Z,61.84
2022-10-07T18:49:30.273Z,61.23
2022-10-07T18:51:58.264Z,61.77
2022-10-07T18:54:26.289Z,61.71
2022-10-07T18:56:55.709Z,61.29
2022-10-07T18:59:23.555Z,61.62
2022-10-07T19:01:51.628Z,61.84
2022-10-07T19:04:20.147Z,61.25
2022-10-07T19:06:48.868Z,61.44
2022-10-07T19:09:19.185Z,60.81
2022-10-07T19:11:47.597Z,61.46
2022-10-07T19:14:16.668Z,61.09
2022-10-07T19:16:46.473Z,60.71
2022-10-07T19:19:16.886Z,61.07
2022-10-07T19:21:46.394Z,61.06
2022-10-07T19:24:15.622Z,60.33
2022-10-07T19:26:45.696Z,60.75
2022-10-07T19:29:16.621Z,60.88
2022-10-07T19:31:46.131Z,60.29
2022-10-07T19:34:16.243Z,60.31
2022-10-07T19:36:47.315Z,60.45
2022-10-07T19:39:16.481Z,60.36
2022-10-07T19:41:45.186Z,60.02
2022-10-07T19:44:14.281Z,60.75
2022-10-07T19:46:44.144Z,60.78
2022-10-07T19:49:12.524Z,60.85
2022-10-07T19:51:42.168Z,60.44
2022-10-07T19:54:10.658Z,60.68
2022-10-07T19:56:40.932Z,60.63
2022-10-07T19:59:10.842Z,60.61
2022-10-07T20:01:41.520Z,60.71
2022-10-07T20:04:14.121Z,60.29
2022-10-07T20:06:42.791Z,60.29
2022-10-07T20:09:13.145Z,60.64
2022-10-07T20:11:41.007Z,60.86
2022-10-07T20:14:09.977Z,60.67
2022-10-07T20:16:38.256Z,60.41
2022-10-07T20:19:07.737Z,61.19
2022-10-07T20:21:39.359Z,61.06
2022-10-07T20:24:08.824Z,60.93
2022-10-07T20:26:38.801Z,61.09
2022-10-07T20:29:09.980Z,61.11
2022-10-07T20:31:39.553Z,60.51
2022-10-07T20:34:09.693Z,61.29
2022-10-07T20:36:41.329Z,62.10
2022-10-07T20:39:31.769Z,61.99
2022-10-07T20:42:17.050Z,61.50
2022-10-07T20:44:44.945Z,61.77
2022-10-07T20:47:12.833Z,61.34
2022-10-07T20:53:36.079Z,61.46
2022-10-07T20:56:04.513Z,61.61
2022-10-07T20:58:32.533Z,61.52
2022-10-07T21:01:08.464Z,61.63
2022-10-07T21:03:37.293Z,61.68
2022-10-07T21:06:05.741Z,61.82
2022-10-07T21:08:35.125Z,61.15
2022-10-07T21:11:03.769Z,61.16
2022-10-07T21:13:33.324Z,61.89
2022-10-07T21:16:04.781Z,61.93
2022-10-07T21:18:33.590Z,62.07
2022-10-07T21:21:01.553Z,62.64
2022-10-07T21:23:29.813Z,62.06
2022-10-07T21:26:02.499Z,62.36
2022-10-07T21:28:33.152Z,62.07
2022-10-07T21:31:01.970Z,62.57
2022-10-07T21:33:30.553Z,62.31
2022-10-07T21:36:00.562Z,62.04
2022-10-07T21:38:28.801Z,62.11
2022-10-07T21:41:00.229Z,62.19
2022-10-07T21:43:29.865Z,61.59
2022-10-07T21:45:58.666Z,61.74
2022-10-07T21:48:28.303Z,61.81
2022-10-07T21:50:56.293Z,61.63
2022-10-07T21:53:24.604Z,61.74
2022-10-07T21:55:52.975Z,62.27
2022-10-07T21:58:21.537Z,62.04
2022-10-07T22:00:50.791Z,62.24
2022-10-07T22:03:18.859Z,61.78
2022-10-07T22:05:46.705Z,61.68
2022-10-07T22:08:34.374Z,62.04
2022-10-07T22:11:03.221Z,61.82
2022-10-07T22:13:32.989Z,61.80
2022-10-07T22:16:04.550Z,62.13
2022-10-07T22:18:36.024Z,63.37
2022-10-07T22:21:10.863Z,63.26
2022-10-07T22:23:38.733Z,62.62
2022-10-07T22:26:08.335Z,62.59
2022-10-07T22:28:38.496Z,62.43
2022-10-07T22:31:10.008Z,62.54
2022-10-07T22:33:39.503Z,62.45
2022-10-07T22:36:07.738Z,62.22
2022-10-07T22:38:36.128Z,62.61
2022-10-07T22:41:04.140Z,62.84
2022-10-07T22:43:32.256Z,63.23
2022-10-07T22:46:00.648Z,63.09
2022-10-07T22:48:31.322Z,62.49
2022-10-07T22:51:08.113Z,62.54
2022-10-07T22:53:37.220Z,62.70
2022-10-07T22:56:06.327Z,63.34
2022-10-07T22:58:34.703Z,62.60
2022-10-07T23:01:04.414Z,62.48
2022-10-07T23:03:39.549Z,63.00
2022-10-07T23:06:33.493Z,63.30
2022-10-07T23:09:01.992Z,63.95
2022-10-07T23:11:31.447Z,63.89
2022-10-07T23:14:01.759Z,63.80
2022-10-07T23:16:38.152Z,64.20
2022-10-07T23:19:07.545Z,65.38
2022-10-07T23:21:37.067Z,67.28
2022-10-07T23:24:08.212Z,68.42
2022-10-07T23:26:38.300Z,69.52
2022-10-07T23:29:07.794Z,70.03
2022-10-07T23:31:39.254Z,71.70
2022-10-07T23:34:08.497Z,71.76
2022-10-07T23:36:40.885Z,71.93
2022-10-07T23:39:08.797Z,71.71
2022-10-07T23:41:36.769Z,71.84
2022-10-07T23:44:04.770Z,72.24
2022-10-07T23:46:41.804Z,72.17
2022-10-07T23:49:11.803Z,72.45
2022-10-07T23:51:40.329Z,72.20
2022-10-07T23:54:08.428Z,72.25
2022-10-07T23:56:36.322Z,72.41
2022-10-07T23:59:04.271Z,72.22
